Insular — CSDD — position and weather

sailwx.info

Track history (hours):
 
Tides and Currents Weather Stations Pressure Air Temp Water Temp Dewpoint Dewpoint Depression Visibility Wind Speed Wind Dir Waves Ship Positions

Insular

Last reported at 2017-Jan-14 23:33 UTC. Time now 2017-Jan-17 19:17 UTC.
Position N 38°13' W 009°54'.

Length 120 m; draft 6.4 m.

Type: Ship (hazmat cat A). MMSI: 263752000.

Date/timePositionNaut miles runAvg speedWind from/ knotsBaromVisibWave heightAir tempDewpointWater temp
2017-Jan-14 23:33N 38°13' W 009°54'1515.4
2017-Jan-14 22:34N 38°23' W 009°40'1515.1
2017-Jan-14 21:34N 38°34' W 009°27'1414.0
2017-Jan-14 20:33N 38°41' W 009°11'4 3.6
2017-Jan-14 19:30N 38°43' W 009°07'0 0.0
2017-Jan-14 18:33N 38°43' W 009°07'0 0.0
2017-Jan-14 17:33N 38°43' W 009°07'0 0.0
2017-Jan-14 16:33N 38°43' W 009°07'0 0.0
2017-Jan-14 15:30N 38°43' W 009°07'0 0.0
2017-Jan-14 14:33N 38°43' W 009°07'0 0.0
2017-Jan-14 13:30N 38°43' W 009°07'0 0.0
2017-Jan-14 12:33N 38°43' W 009°07'0 0.0
2017-Jan-14 11:30N 38°43' W 009°07'0 0.0
2017-Jan-14 10:30N 38°43' W 009°07'0 0.0
2017-Jan-14 09:33N 38°43' W 009°07'0 0.0
2017-Jan-14 08:33N 38°43' W 009°07'0 0.0
2017-Jan-14 07:32N 38°43' W 009°07'1 1.3
2017-Jan-14 06:33N 38°42' W 009°08'9 9.1
2017-Jan-14 05:33N 38°40' W 009°19'9 9.2
2017-Jan-14 04:33N 38°38' W 009°30'1111.1
2017-Jan-14 03:33N 38°44' W 009°42'  
2017-Jan-10 10:26N 32°44' W 016°44'0 0.0
2017-Jan-10 06:24N 32°44' W 016°44'0 0.0
2017-Jan-10 00:31N 32°44' W 016°44'0 0.0
2017-Jan-09 23:13N 32°44' W 016°44'0 0.0
2017-Jan-09 22:33N 32°44' W 016°44'0 0.0
2017-Jan-09 21:31N 32°44' W 016°44'0 0.0
2017-Jan-09 20:26N 32°44' W 016°44'0 0.0
2017-Jan-09 19:08N 32°44' W 016°44'0 0.0
2017-Jan-09 17:33N 32°44' W 016°44'0 0.0
2017-Jan-09 16:26N 32°44' W 016°44'4 0.4
2017-Jan-09 07:14N 32°42' W 016°40'7214.5
2017-Jan-09 02:18N 33°32' W 015°39'7114.9
2017-Jan-08 21:32N 34°23' W 014°39'31916.0
2017-Jan-08 01:33N 38°08' W 009°59'1616.5
2017-Jan-08 00:34N 38°20' W 009°44'1716.5
2017-Jan-07 23:33N 38°32' W 009°30'1312.8
2017-Jan-07 22:33N 38°41' W 009°18'9 8.8
2017-Jan-07 21:33N 38°43' W 009°07'0 0.0
2017-Jan-07 20:32N 38°43' W 009°07'0 0.0
2017-Jan-07 19:29N 38°43' W 009°07'0 0.0
2017-Jan-07 18:26N 38°43' W 009°07'0 0.0
2017-Jan-07 17:32N 38°43' W 009°07'0 0.0
2017-Jan-07 16:32N 38°43' W 009°07'0 0.0
2017-Jan-07 15:26N 38°43' W 009°07'0 0.0
2017-Jan-07 14:32N 38°43' W 009°07'0 0.0
2017-Jan-07 13:32N 38°43' W 009°07'0 0.0
2017-Jan-07 12:32N 38°43' W 009°07'0 0.0
2017-Jan-07 11:29N 38°43' W 009°07'0 0.0
2017-Jan-07 10:32N 38°43' W 009°07'0 0.0
2017-Jan-07 09:32N 38°43' W 009°07'0 0.0
2017-Jan-07 08:32N 38°43' W 009°07'0 0.0
2017-Jan-07 07:32N 38°43' W 009°07'0 0.0
2017-Jan-07 06:32N 38°43' W 009°07'0 0.0
2017-Jan-07 05:26N 38°43' W 009°07'0 0.0
2017-Jan-07 04:32N 38°43' W 009°07'0 0.0
2017-Jan-07 03:29N 38°43' W 009°07'0 0.0
2017-Jan-07 02:31N 38°43' W 009°07'0 0.0
2017-Jan-07 01:31N 38°43' W 009°07'1 0.5
2017-Jan-07 00:34N 38°43' W 009°07'9 8.7
2017-Jan-06 23:33N 38°41' W 009°18'1313.2
2017-Jan-06 22:33N 38°38' W 009°34'1312.6
2017-Jan-06 21:31N 38°49' W 009°43'1616.4
2017-Jan-06 20:33N 39°05' W 009°43'  
Track history (hours):
 
Tides and Currents Weather Stations Pressure Air Temp Water Temp Dewpoint Dewpoint Depression Visibility Wind Speed Wind Dir Waves Ship Positions

Insular

Last reported at 2017-Jan-14 23:33 UTC. Time now 2017-Jan-17 19:17 UTC.
Position N 38°13' W 009°54'.

Length 120 m; draft 6.4 m.

Type: Ship (hazmat cat A). MMSI: 263752000.

Date/timePositionNaut miles runAvg speedWind from/ knotsBaromVisibWave heightAir tempDewpointWater temp
2017-Jan-14 23:33N 38°13' W 009°54'1515.4
2017-Jan-14 22:34N 38°23' W 009°40'1515.1
2017-Jan-14 21:34N 38°34' W 009°27'1414.0
2017-Jan-14 20:33N 38°41' W 009°11'4 3.6
2017-Jan-14 19:30N 38°43' W 009°07'0 0.0
2017-Jan-14 18:33N 38°43' W 009°07'0 0.0
2017-Jan-14 17:33N 38°43' W 009°07'0 0.0
2017-Jan-14 16:33N 38°43' W 009°07'0 0.0
2017-Jan-14 15:30N 38°43' W 009°07'0 0.0
2017-Jan-14 14:33N 38°43' W 009°07'0 0.0
2017-Jan-14 13:30N 38°43' W 009°07'0 0.0
2017-Jan-14 12:33N 38°43' W 009°07'0 0.0
2017-Jan-14 11:30N 38°43' W 009°07'0 0.0
2017-Jan-14 10:30N 38°43' W 009°07'0 0.0
2017-Jan-14 09:33N 38°43' W 009°07'0 0.0
2017-Jan-14 08:33N 38°43' W 009°07'0 0.0
2017-Jan-14 07:32N 38°43' W 009°07'1 1.3
2017-Jan-14 06:33N 38°42' W 009°08'9 9.1
2017-Jan-14 05:33N 38°40' W 009°19'9 9.2
2017-Jan-14 04:33N 38°38' W 009°30'1111.1
2017-Jan-14 03:33N 38°44' W 009°42'  
2017-Jan-10 10:26N 32°44' W 016°44'0 0.0
2017-Jan-10 06:24N 32°44' W 016°44'0 0.0
2017-Jan-10 00:31N 32°44' W 016°44'0 0.0
2017-Jan-09 23:13N 32°44' W 016°44'0 0.0
2017-Jan-09 22:33N 32°44' W 016°44'0 0.0
2017-Jan-09 21:31N 32°44' W 016°44'0 0.0
2017-Jan-09 20:26N 32°44' W 016°44'0 0.0
2017-Jan-09 19:08N 32°44' W 016°44'0 0.0
2017-Jan-09 17:33N 32°44' W 016°44'0 0.0
2017-Jan-09 16:26N 32°44' W 016°44'4 0.4
2017-Jan-09 07:14N 32°42' W 016°40'7214.5
2017-Jan-09 02:18N 33°32' W 015°39'7114.9
2017-Jan-08 21:32N 34°23' W 014°39'31916.0
2017-Jan-08 01:33N 38°08' W 009°59'1616.5
2017-Jan-08 00:34N 38°20' W 009°44'1716.5
2017-Jan-07 23:33N 38°32' W 009°30'1312.8
2017-Jan-07 22:33N 38°41' W 009°18'9 8.8
2017-Jan-07 21:33N 38°43' W 009°07'0 0.0
2017-Jan-07 20:32N 38°43' W 009°07'0 0.0
2017-Jan-07 19:29N 38°43' W 009°07'0 0.0
2017-Jan-07 18:26N 38°43' W 009°07'0 0.0
2017-Jan-07 17:32N 38°43' W 009°07'0 0.0
2017-Jan-07 16:32N 38°43' W 009°07'0 0.0
2017-Jan-07 15:26N 38°43' W 009°07'0 0.0
2017-Jan-07 14:32N 38°43' W 009°07'0 0.0
2017-Jan-07 13:32N 38°43' W 009°07'0 0.0
2017-Jan-07 12:32N 38°43' W 009°07'0 0.0
2017-Jan-07 11:29N 38°43' W 009°07'0 0.0
2017-Jan-07 10:32N 38°43' W 009°07'0 0.0
2017-Jan-07 09:32N 38°43' W 009°07'0 0.0
2017-Jan-07 08:32N 38°43' W 009°07'0 0.0
2017-Jan-07 07:32N 38°43' W 009°07'0 0.0
2017-Jan-07 06:32N 38°43' W 009°07'0 0.0
2017-Jan-07 05:26N 38°43' W 009°07'0 0.0
2017-Jan-07 04:32N 38°43' W 009°07'0 0.0
2017-Jan-07 03:29N 38°43' W 009°07'0 0.0
2017-Jan-07 02:31N 38°43' W 009°07'0 0.0
2017-Jan-07 01:31N 38°43' W 009°07'1 0.5
2017-Jan-07 00:34N 38°43' W 009°07'9 8.7
2017-Jan-06 23:33N 38°41' W 009°18'1313.2
2017-Jan-06 22:33N 38°38' W 009°34'1312.6
2017-Jan-06 21:31N 38°49' W 009°43'1616.4
2017-Jan-06 20:33N 39°05' W 009°43'  

Dump ship's entire track history